sensor_id;sensor_type;location;lat;lon;timestamp;pressure;altitude;pressure_sealevel;temperature;humidity
43621;BME280;29213;50.770;7.298;2023-05-31T00:00:20;101556.31;;;12.87;52.53
43621;BME280;29213;50.770;7.298;2023-05-31T00:02:46;101576.69;;;12.88;52.61
43621;BME280;29213;50.770;7.298;2023-05-31T00:05:11;101608.38;;;13.01;52.80
43621;BME280;29213;50.770;7.298;2023-05-31T00:07:37;101479.22;;;12.11;53.04
43621;BME280;29213;50.770;7.298;2023-05-31T00:10:02;101568.41;;;12.54;53.13
43621;BME280;29213;50.770;7.298;2023-05-31T00:12:28;101597.78;;;12.73;53.37
43621;BME280;29213;50.770;7.298;2023-05-31T00:14:53;101610.00;;;12.75;53.26
43621;BME280;29213;50.770;7.298;2023-05-31T00:17:18;101599.31;;;12.57;53.75
43621;BME280;29213;50.770;7.298;2023-05-31T00:19:44;101589.84;;;12.45;53.51
43621;BME280;29213;50.770;7.298;2023-05-31T00:22:10;101538.84;;;12.01;53.66
43621;BME280;29213;50.770;7.298;2023-05-31T00:24:36;101600.16;;;12.39;53.65
43621;BME280;29213;50.770;7.298;2023-05-31T00:27:01;101473.06;;;11.54;53.88
43621;BME280;29213;50.770;7.298;2023-05-31T00:29:27;101564.78;;;12.09;53.85
43621;BME280;29213;50.770;7.298;2023-05-31T00:31:52;101614.72;;;12.27;54.05
43621;BME280;29213;50.770;7.298;2023-05-31T00:34:18;101640.09;;;12.41;54.08
43621;BME280;29213;50.770;7.298;2023-05-31T00:36:43;101621.88;;;12.26;54.28
43621;BME280;29213;50.770;7.298;2023-05-31T00:39:09;101593.09;;;12.02;54.38
43621;BME280;29213;50.770;7.298;2023-05-31T00:41:35;101531.00;;;11.62;54.22
43621;BME280;29213;50.770;7.298;2023-05-31T00:44:00;101585.97;;;11.93;54.31
43621;BME280;29213;50.770;7.298;2023-05-31T00:46:28;101552.09;;;11.65;54.53
43621;BME280;29213;50.770;7.298;2023-05-31T00:48:55;101607.84;;;11.96;54.72
43621;BME280;29213;50.770;7.298;2023-05-31T00:51:22;101605.88;;;11.88;54.57
43621;BME280;29213;50.770;7.298;2023-05-31T00:53:47;101581.44;;;11.65;54.65
43621;BME280;29213;50.770;7.298;2023-05-31T00:56:13;101524.69;;;11.25;54.60
43621;BME280;29213;50.770;7.298;2023-05-31T00:58:41;101649.59;;;11.87;54.99
43621;BME280;29213;50.770;7.298;2023-05-31T01:01:10;101612.06;;;11.61;55.13
43621;BME280;29213;50.770;7.298;2023-05-31T01:03:35;101601.25;;;11.53;55.09
43621;BME280;29213;50.770;7.298;2023-05-31T01:06:01;101561.91;;;11.17;55.14
43621;BME280;29213;50.770;7.298;2023-05-31T01:08:28;101604.94;;;11.42;55.03
43621;BME280;29213;50.770;7.298;2023-05-31T01:10:57;101557.16;;;11.10;55.38
43621;BME280;29213;50.770;7.298;2023-05-31T01:13:51;101505.31;;;10.75;55.24
43621;BME280;29213;50.770;7.298;2023-05-31T01:16:35;101614.34;;;11.36;55.45
43621;BME280;29213;50.770;7.298;2023-05-31T01:19:05;101643.25;;;11.50;55.56
43621;BME280;29213;50.770;7.298;2023-05-31T01:22:06;101643.69;;;11.46;55.50
43621;BME280;29213;50.770;7.298;2023-05-31T01:25:09;101640.59;;;11.41;55.59
43621;BME280;29213;50.770;7.298;2023-05-31T01:27:39;101592.25;;;11.06;55.55
43621;BME280;29213;50.770;7.298;2023-05-31T01:30:07;101593.91;;;11.07;55.48
43621;BME280;29213;50.770;7.298;2023-05-31T01:32:35;101645.13;;;11.30;55.76
43621;BME280;29213;50.770;7.298;2023-05-31T01:35:02;101631.22;;;11.17;55.88
43621;BME280;29213;50.770;7.298;2023-05-31T01:37:28;101570.22;;;10.84;55.99
43621;BME280;29213;50.770;7.298;2023-05-31T01:39:53;101593.94;;;10.87;56.05
43621;BME280;29213;50.770;7.298;2023-05-31T01:42:20;101494.50;;;10.27;55.84
43621;BME280;29213;50.770;7.298;2023-05-31T01:44:46;101477.13;;;10.13;56.34
43621;BME280;29213;50.770;7.298;2023-05-31T01:47:14;101648.91;;;11.08;56.08
43621;BME280;29213;50.770;7.298;2023-05-31T01:49:41;101541.47;;;10.38;56.24
43621;BME280;29213;50.770;7.298;2023-05-31T01:52:10;101614.84;;;10.82;56.15
43621;BME280;29213;50.770;7.298;2023-05-31T01:54:38;101563.31;;;10.52;56.16
43621;BME280;29213;50.770;7.298;2023-05-31T01:57:04;101620.75;;;10.76;56.15
43621;BME280;29213;50.770;7.298;2023-05-31T01:59:35;101640.50;;;10.93;56.48
43621;BME280;29213;50.770;7.298;2023-05-31T02:02:02;101559.69;;;10.33;56.36
43621;BME280;29213;50.770;7.298;2023-05-31T02:04:28;101523.91;;;10.16;56.37
43621;BME280;29213;50.770;7.298;2023-05-31T02:06:53;101644.84;;;10.84;56.51
43621;BME280;29213;50.770;7.298;2023-05-31T02:09:20;101621.09;;;10.61;56.61
43621;BME280;29213;50.770;7.298;2023-05-31T02:11:46;101612.69;;;10.56;56.40
43621;BME280;29213;50.770;7.298;2023-05-31T02:14:11;101627.97;;;10.54;56.50
43621;BME280;29213;50.770;7.298;2023-05-31T02:16:36;101649.44;;;10.72;56.68
43621;BME280;29213;50.770;7.298;2023-05-31T02:19:02;101467.81;;;9.58;56.58
43621;BME280;29213;50.770;7.298;2023-05-31T02:21:28;101647.47;;;10.64;56.61
43621;BME280;29213;50.770;7.298;2023-05-31T02:23:54;101518.94;;;9.82;56.70
43621;BME280;29213;50.770;7.298;2023-05-31T02:26:19;101640.75;;;10.60;56.75
43621;BME280;29213;50.770;7.298;2023-05-31T02:28:45;101544.91;;;9.99;56.72
43621;BME280;29213;50.770;7.298;2023-05-31T02:31:11;101560.47;;;10.04;56.66
43621;BME280;29213;50.770;7.298;2023-05-31T02:33:36;101598.63;;;10.24;56.84
43621;BME280;29213;50.770;7.298;2023-05-31T02:36:01;101582.91;;;10.11;56.76
43621;BME280;29213;50.770;7.298;2023-05-31T02:38:27;101557.63;;;9.96;57.05
43621;BME280;29213;50.770;7.298;2023-05-31T02:40:53;101547.66;;;9.88;56.82
43621;BME280;29213;50.770;7.298;2023-05-31T02:43:19;101610.66;;;10.19;56.85
43621;BME280;29213;50.770;7.298;2023-05-31T02:45:44;101621.59;;;10.25;56.72
43621;BME280;29213;50.770;7.298;2023-05-31T02:48:10;101566.72;;;9.93;56.80
43621;BME280;29213;50.770;7.298;2023-05-31T02:50:35;101626.94;;;10.25;56.79
43621;BME280;29213;50.770;7.298;2023-05-31T02:53:01;101621.59;;;10.15;56.80
43621;BME280;29213;50.770;7.298;2023-05-31T02:55:30;101535.69;;;9.62;56.88
43621;BME280;29213;50.770;7.298;2023-05-31T02:57:55;101635.34;;;10.21;56.87
43621;BME280;29213;50.770;7.298;2023-05-31T03:00:21;101602.72;;;9.87;56.94
43621;BME280;29213;50.770;7.298;2023-05-31T03:02:46;101573.81;;;9.73;56.92
43621;BME280;29213;50.770;7.298;2023-05-31T03:05:12;101649.44;;;10.11;57.08
43621;BME280;29213;50.770;7.298;2023-05-31T03:07:38;101586.78;;;9.66;56.89
43621;BME280;29213;50.770;7.298;2023-05-31T03:10:04;101554.06;;;9.44;56.84
43621;BME280;29213;50.770;7.298;2023-05-31T03:12:30;101509.56;;;9.15;56.88
43621;BME280;29213;50.770;7.298;2023-05-31T03:14:55;101638.00;;;9.89;56.98
43621;BME280;29213;50.770;7.298;2023-05-31T03:17:21;101586.06;;;9.54;56.91
43621;BME280;29213;50.770;7.298;2023-05-31T03:19:46;101588.84;;;9.53;57.00
43621;BME280;29213;50.770;7.298;2023-05-31T03:22:12;101658.91;;;9.94;57.14
43621;BME280;29213;50.770;7.298;2023-05-31T03:24:37;101582.59;;;9.42;56.95
43621;BME280;29213;50.770;7.298;2023-05-31T03:27:03;101638.66;;;9.82;56.89
43621;BME280;29213;50.770;7.298;2023-05-31T03:29:28;101576.56;;;9.40;56.81
43621;BME280;29213;50.770;7.298;2023-05-31T03:31:54;101532.59;;;9.05;56.98
43621;BME280;29213;50.770;7.298;2023-05-31T03:34:20;101609.66;;;9.47;57.20
43621;BME280;29213;50.770;7.298;2023-05-31T03:36:46;101581.84;;;9.30;57.20
43621;BME280;29213;50.770;7.298;2023-05-31T03:39:12;101562.84;;;9.14;57.11
43621;BME280;29213;50.770;7.298;2023-05-31T03:41:37;101632.69;;;9.58;57.14
43621;BME280;29213;50.770;7.298;2023-05-31T03:44:02;101609.06;;;9.44;57.63
43621;BME280;29213;50.770;7.298;2023-05-31T03:46:28;101587.41;;;9.27;57.21
43621;BME280;29213;50.770;7.298;2023-05-31T03:48:53;101631.38;;;9.53;57.46
43621;BME280;29213;50.770;7.298;2023-05-31T03:51:19;101616.47;;;9.40;57.45
43621;BME280;29213;50.770;7.298;2023-05-31T03:53:44;101646.69;;;9.60;57.49
43621;BME280;29213;50.770;7.298;2023-05-31T03:56:10;101503.53;;;8.70;57.60
43621;BME280;29213;50.770;7.298;2023-05-31T03:58:35;101563.63;;;9.04;57.59
43621;BME280;29213;50.770;7.298;2023-05-31T04:01:00;101571.94;;;9.11;57.47
43621;BME280;29213;50.770;7.298;2023-05-31T04:03:28;101559.66;;;8.99;57.39
43621;BME280;29213;50.770;7.298;2023-05-31T04:05:53;101568.41;;;9.10;57.54
43621;BME280;29213;50.770;7.298;2023-05-31T04:08:18;101563.50;;;9.06;57.50
43621;BME280;29213;50.770;7.298;2023-05-31T04:10:44;101607.31;;;9.33;57.66
43621;BME280;29213;50.770;7.298;2023-05-31T04:13:09;101618.09;;;9.31;57.79
43621;BME280;29213;50.770;7.298;2023-05-31T04:15:35;101606.00;;;9.27;57.87
43621;BME280;29213;50.770;7.298;2023-05-31T04:18:01;101634.94;;;9.42;57.63
43621;BME280;29213;50.770;7.298;2023-05-31T04:20:26;101426.47;;;8.18;57.57
43621;BME280;29213;50.770;7.298;2023-05-31T04:22:52;101573.28;;;9.05;57.67
43621;BME280;29213;50.770;7.298;2023-05-31T04:25:19;101606.00;;;9.27;57.79
43621;BME280;29213;50.770;7.298;2023-05-31T04:27:46;101652.88;;;9.61;57.78
43621;BME280;29213;50.770;7.298;2023-05-31T04:30:11;101528.50;;;8.79;57.71
43621;BME280;29213;50.770;7.298;2023-05-31T04:32:37;101655.25;;;9.64;57.95
43621;BME280;29213;50.770;7.298;2023-05-31T04:35:04;101664.66;;;9.68;57.93
43621;BME280;29213;50.770;7.298;2023-05-31T04:37:30;101504.97;;;8.75;57.98
43621;BME280;29213;50.770;7.298;2023-05-31T04:39:56;101598.09;;;9.37;57.65
43621;BME280;29213;50.770;7.298;2023-05-31T04:42:26;101658.41;;;9.79;57.73
43621;BME280;29213;50.770;7.298;2023-05-31T04:44:52;101447.38;;;8.54;57.81
43621;BME280;29213;50.770;7.298;2023-05-31T04:47:25;101610.31;;;9.61;57.92
43621;BME280;29213;50.770;7.298;2023-05-31T04:49:54;101633.56;;;9.69;57.86
43621;BME280;29213;50.770;7.298;2023-05-31T04:52:28;101659.88;;;9.93;58.10
43621;BME280;29213;50.770;7.298;2023-05-31T04:54:58;101653.31;;;9.97;58.03
43621;BME280;29213;50.770;7.298;2023-05-31T04:57:24;101605.56;;;9.65;58.08
43621;BME280;29213;50.770;7.298;2023-05-31T04:59:51;101559.50;;;9.43;58.23
43621;BME280;29213;50.770;7.298;2023-05-31T05:02:17;101666.41;;;10.10;58.34
43621;BME280;29213;50.770;7.298;2023-05-31T05:04:43;101673.97;;;10.15;58.29
43621;BME280;29213;50.770;7.298;2023-05-31T05:07:09;101541.72;;;9.43;58.40
43621;BME280;29213;50.770;7.298;2023-05-31T05:09:34;101610.81;;;9.86;58.52
43621;BME280;29213;50.770;7.298;2023-05-31T05:12:00;101533.13;;;9.51;58.54
43621;BME280;29213;50.770;7.298;2023-05-31T05:14:25;101599.50;;;9.94;58.60
43621;BME280;29213;50.770;7.298;2023-05-31T05:16:50;101582.00;;;9.91;58.19
43621;BME280;29213;50.770;7.298;2023-05-31T05:19:16;101576.94;;;9.88;58.59
43621;BME280;29213;50.770;7.298;2023-05-31T05:21:41;101670.72;;;10.52;58.35
43621;BME280;29213;50.770;7.298;2023-05-31T05:24:06;101600.66;;;10.11;58.45
43621;BME280;29213;50.770;7.298;2023-05-31T05:26:33;101567.72;;;10.02;58.46
43621;BME280;29213;50.770;7.298;2023-05-31T05:28:58;101665.84;;;10.67;58.32
43621;BME280;29213;50.770;7.298;2023-05-31T05:31:23;101673.28;;;10.74;58.36
43621;BME280;29213;50.770;7.298;2023-05-31T05:33:50;101604.31;;;10.80;62.54
43621;BME280;29213;50.770;7.298;2023-05-31T05:36:16;101612.22;;;11.40;61.23
43621;BME280;29213;50.770;7.298;2023-05-31T05:38:41;101632.28;;;11.54;58.67
43621;BME280;29213;50.770;7.298;2023-05-31T05:41:06;101629.06;;;11.50;58.06
43621;BME280;29213;50.770;7.298;2023-05-31T05:43:36;101666.22;;;11.71;57.89
43621;BME280;29213;50.770;7.298;2023-05-31T05:46:01;101598.50;;;11.34;57.67
43621;BME280;29213;50.770;7.298;2023-05-31T05:48:27;101640.41;;;11.62;57.63
43621;BME280;29213;50.770;7.298;2023-05-31T05:50:52;101610.69;;;11.47;57.70
43621;BME280;29213;50.770;7.298;2023-05-31T05:53:17;101555.44;;;11.19;57.59
43621;BME280;29213;50.770;7.298;2023-05-31T05:55:52;101667.16;;;11.90;57.75
43621;BME280;29213;50.770;7.298;2023-05-31T05:58:18;101595.50;;;11.57;57.54
43621;BME280;29213;50.770;7.298;2023-05-31T06:00:45;101622.63;;;11.90;58.29
43621;BME280;29213;50.770;7.298;2023-05-31T06:03:14;101657.28;;;12.56;58.39
43621;BME280;29213;50.770;7.298;2023-05-31T06:05:43;101496.78;;;11.85;57.41
43621;BME280;29213;50.770;7.298;2023-05-31T06:08:10;101657.53;;;13.18;56.83
43621;BME280;29213;50.770;7.298;2023-05-31T06:10:35;101649.00;;;13.41;56.04
43621;BME280;29213;50.770;7.298;2023-05-31T06:13:01;101592.09;;;13.30;55.35
43621;BME280;29213;50.770;7.298;2023-05-31T06:15:26;101568.84;;;13.31;54.92
43621;BME280;29213;50.770;7.298;2023-05-31T06:17:52;101654.53;;;14.00;54.59
43621;BME280;29213;50.770;7.298;2023-05-31T06:20:17;101599.38;;;13.81;54.17
43621;BME280;29213;50.770;7.298;2023-05-31T06:22:43;101637.38;;;14.11;53.87
43621;BME280;29213;50.770;7.298;2023-05-31T06:25:09;101619.78;;;14.17;53.79
43621;BME280;29213;50.770;7.298;2023-05-31T06:27:34;101645.31;;;14.46;53.56
43621;BME280;29213;50.770;7.298;2023-05-31T06:30:00;101650.53;;;14.48;53.13
43621;BME280;29213;50.770;7.298;2023-05-31T06:32:29;101653.25;;;14.73;53.36
43621;BME280;29213;50.770;7.298;2023-05-31T06:34:55;101639.69;;;14.74;51.97
43621;BME280;29213;50.770;7.298;2023-05-31T06:37:21;101611.19;;;14.48;50.69
43621;BME280;29213;50.770;7.298;2023-05-31T06:39:48;101611.19;;;14.48;52.37
43621;BME280;29213;50.770;7.298;2023-05-31T06:42:13;101654.59;;;14.68;51.02
43621;BME280;29213;50.770;7.298;2023-05-31T06:44:42;101645.38;;;14.71;51.98
43621;BME280;29213;50.770;7.298;2023-05-31T06:47:08;101637.69;;;14.85;51.98
43621;BME280;29213;50.770;7.298;2023-05-31T06:49:34;101648.44;;;15.18;51.51
43621;BME280;29213;50.770;7.298;2023-05-31T06:52:00;101573.50;;;14.75;51.04
43621;BME280;29213;50.770;7.298;2023-05-31T06:54:26;101653.28;;;15.39;49.58
43621;BME280;29213;50.770;7.298;2023-05-31T06:56:52;101617.41;;;15.32;50.30
43621;BME280;29213;50.770;7.298;2023-05-31T06:59:17;101613.19;;;15.46;50.91
43621;BME280;29213;50.770;7.298;2023-05-31T07:01:43;101632.59;;;15.65;49.89
43621;BME280;29213;50.770;7.298;2023-05-31T07:04:08;101630.53;;;15.75;50.21
43621;BME280;29213;50.770;7.298;2023-05-31T07:06:34;101646.94;;;16.05;49.25
43621;BME280;29213;50.770;7.298;2023-05-31T07:09:00;101591.84;;;15.93;49.21
43621;BME280;29213;50.770;7.298;2023-05-31T07:11:26;101643.78;;;16.33;49.37
43621;BME280;29213;50.770;7.298;2023-05-31T07:13:51;101532.34;;;15.81;48.71
43621;BME280;29213;50.770;7.298;2023-05-31T07:16:16;101605.88;;;16.20;46.79
43621;BME280;29213;50.770;7.298;2023-05-31T07:18:42;101602.84;;;16.23;45.23
43621;BME280;29213;50.770;7.298;2023-05-31T07:21:07;101581.75;;;16.11;45.84
43621;BME280;29213;50.770;7.298;2023-05-31T07:23:33;101631.41;;;16.47;45.61
43621;BME280;29213;50.770;7.298;2023-05-31T07:25:59;101599.50;;;16.44;46.26
43621;BME280;29213;50.770;7.298;2023-05-31T07:28:25;101554.38;;;16.31;43.84
43621;BME280;29213;50.770;7.298;2023-05-31T07:30:51;101602.03;;;16.69;46.39
43621;BME280;29213;50.770;7.298;2023-05-31T07:33:16;101637.59;;;17.03;46.08
43621;BME280;29213;50.770;7.298;2023-05-31T07:35:43;101627.56;;;17.12;45.13
43621;BME280;29213;50.770;7.298;2023-05-31T07:38:08;101632.34;;;17.25;45.38
43621;BME280;29213;50.770;7.298;2023-05-31T07:40:34;101564.59;;;16.82;42.32
43621;BME280;29213;50.770;7.298;2023-05-31T07:43:00;101588.41;;;17.09;42.49
43621;BME280;29213;50.770;7.298;2023-05-31T07:45:25;101625.47;;;17.37;41.22
43621;BME280;29213;50.770;7.298;2023-05-31T07:47:51;101616.38;;;17.38;40.96
43621;BME280;29213;50.770;7.298;2023-05-31T07:50:18;101560.22;;;17.20;41.41
43621;BME280;29213;50.770;7.298;2023-05-31T07:52:43;101595.88;;;17.52;39.93
43621;BME280;29213;50.770;7.298;2023-05-31T07:55:12;101623.56;;;17.91;41.27
43621;BME280;29213;50.770;7.298;2023-05-31T07:57:38;101581.00;;;17.86;40.68
43621;BME280;29213;50.770;7.298;2023-05-31T08:00:03;101600.19;;;18.13;38.91
43621;BME280;29213;50.770;7.298;2023-05-31T08:02:30;101613.50;;;18.37;39.25
43621;BME280;29213;50.770;7.298;2023-05-31T08:04:56;101584.34;;;18.25;38.68
43621;BME280;29213;50.770;7.298;2023-05-31T08:07:27;101551.09;;;18.18;37.91
43621;BME280;29213;50.770;7.298;2023-05-31T08:09:52;101607.22;;;18.73;37.31
43621;BME280;29213;50.770;7.298;2023-05-31T08:12:17;101571.63;;;18.56;36.42
43621;BME280;29213;50.770;7.298;2023-05-31T08:14:43;101570.72;;;18.71;37.34
43621;BME280;29213;50.770;7.298;2023-05-31T08:17:09;101587.75;;;19.00;35.99
43621;BME280;29213;50.770;7.298;2023-05-31T08:19:34;101557.16;;;18.92;35.17
43621;BME280;29213;50.770;7.298;2023-05-31T08:22:00;101569.09;;;19.05;35.88
43621;BME280;29213;50.770;7.298;2023-05-31T08:24:25;101491.38;;;18.65;35.17
43621;BME280;29213;50.770;7.298;2023-05-31T08:26:51;101547.09;;;19.08;34.55
43621;BME280;29213;50.770;7.298;2023-05-31T08:29:16;101592.56;;;19.33;34.23
43621;BME280;29213;50.770;7.298;2023-05-31T08:31:42;101472.78;;;18.77;35.44
43621;BME280;29213;50.770;7.298;2023-05-31T08:34:07;101582.50;;;19.55;33.83
43621;BME280;29213;50.770;7.298;2023-05-31T08:36:32;101548.38;;;19.47;33.46
43621;BME280;29213;50.770;7.298;2023-05-31T08:38:59;101562.41;;;19.65;33.20
43621;BME280;29213;50.770;7.298;2023-05-31T08:41:27;101578.06;;;19.83;33.92
43621;BME280;29213;50.770;7.298;2023-05-31T08:43:54;101567.69;;;19.86;33.32
43621;BME280;29213;50.770;7.298;2023-05-31T08:46:21;101580.41;;;19.99;32.76
43621;BME280;29213;50.770;7.298;2023-05-31T08:48:58;101571.31;;;20.14;31.39
43621;BME280;29213;50.770;7.298;2023-05-31T08:51:25;101579.66;;;20.26;31.58
43621;BME280;29213;50.770;7.298;2023-05-31T08:53:51;101502.44;;;20.03;31.33
43621;BME280;29213;50.770;7.298;2023-05-31T08:56:18;101538.28;;;20.39;30.60
43621;BME280;29213;50.770;7.298;2023-05-31T08:58:48;101538.47;;;20.44;29.87
43621;BME280;29213;50.770;7.298;2023-05-31T09:01:13;101533.72;;;20.53;29.48
43621;BME280;29213;50.770;7.298;2023-05-31T09:03:40;101535.34;;;20.61;29.33
43621;BME280;29213;50.770;7.298;2023-05-31T09:06:06;101544.75;;;20.78;28.13
43621;BME280;29213;50.770;7.298;2023-05-31T09:08:31;101552.66;;;20.87;28.11
43621;BME280;29213;50.770;7.298;2023-05-31T09:11:00;101568.69;;;20.81;27.57
43621;BME280;29213;50.770;7.298;2023-05-31T09:13:26;101573.50;;;20.86;27.94
43621;BME280;29213;50.770;7.298;2023-05-31T09:15:52;101561.81;;;20.99;27.65
43621;BME280;29213;50.770;7.298;2023-05-31T09:18:22;101524.53;;;20.88;27.54
43621;BME280;29213;50.770;7.298;2023-05-31T09:20:49;101573.84;;;21.30;28.88
43621;BME280;29213;50.770;7.298;2023-05-31T09:23:17;101563.19;;;21.35;28.32
43621;BME280;29213;50.770;7.298;2023-05-31T09:28:10;101497.34;;;21.35;29.02
43621;BME280;29213;50.770;7.298;2023-05-31T09:30:36;101551.63;;;21.74;29.82
43621;BME280;29213;50.770;7.298;2023-05-31T09:33:01;101500.88;;;21.42;28.51
43621;BME280;29213;50.770;7.298;2023-05-31T09:35:27;101406.66;;;20.99;30.32
43621;BME280;29213;50.770;7.298;2023-05-31T09:37:52;101516.09;;;21.89;30.38
43621;BME280;29213;50.770;7.298;2023-05-31T09:40:22;101541.53;;;22.20;30.04
43621;BME280;29213;50.770;7.298;2023-05-31T09:42:48;101523.97;;;22.30;30.65
43621;BME280;29213;50.770;7.298;2023-05-31T09:45:15;101507.47;;;22.31;29.74
43621;BME280;29213;50.770;7.298;2023-05-31T09:47:41;101456.41;;;22.21;28.96
43621;BME280;29213;50.770;7.298;2023-05-31T09:50:10;101521.53;;;22.72;27.08
43621;BME280;29213;50.770;7.298;2023-05-31T09:52:36;101484.44;;;22.66;27.09
43621;BME280;29213;50.770;7.298;2023-05-31T09:55:08;101453.03;;;22.70;28.31
43621;BME280;29213;50.770;7.298;2023-05-31T09:57:35;101507.94;;;22.98;26.07
43621;BME280;29213;50.770;7.298;2023-05-31T10:00:11;101455.25;;;22.80;27.16
43621;BME280;29213;50.770;7.298;2023-05-31T10:02:44;101510.66;;;23.16;27.42
43621;BME280;29213;50.770;7.298;2023-05-31T10:05:14;101376.34;;;22.56;27.77
43621;BME280;29213;50.770;7.298;2023-05-31T10:07:41;101493.34;;;23.67;27.67
43621;BME280;29213;50.770;7.298;2023-05-31T10:10:07;101493.84;;;23.87;27.01
43621;BME280;29213;50.770;7.298;2023-05-31T10:12:38;101409.34;;;23.28;24.53
43621;BME280;29213;50.770;7.298;2023-05-31T10:15:06;101475.69;;;23.39;24.22
43621;BME280;29213;50.770;7.298;2023-05-31T10:17:38;101487.91;;;23.67;26.24
43621;BME280;29213;50.770;7.298;2023-05-31T10:20:06;101426.38;;;23.35;24.44
43621;BME280;29213;50.770;7.298;2023-05-31T10:22:36;101487.75;;;23.92;24.06
43621;BME280;29213;50.770;7.298;2023-05-31T10:25:12;101484.09;;;24.10;24.82
43621;BME280;29213;50.770;7.298;2023-05-31T10:27:44;101416.91;;;23.99;25.30
43621;BME280;29213;50.770;7.298;2023-05-31T10:30:12;101473.16;;;24.53;23.89
43621;BME280;29213;50.770;7.298;2023-05-31T10:32:43;101473.75;;;24.43;22.88
43621;BME280;29213;50.770;7.298;2023-05-31T10:35:10;101398.84;;;24.28;24.65
43621;BME280;29213;50.770;7.298;2023-05-31T10:37:37;101470.41;;;25.01;23.89
43621;BME280;29213;50.770;7.298;2023-05-31T10:42:44;101440.72;;;24.87;22.20
43621;BME280;29213;50.770;7.298;2023-05-31T10:45:21;101452.25;;;25.18;24.03
43621;BME280;29213;50.770;7.298;2023-05-31T10:47:51;101459.25;;;25.02;22.42
43621;BME280;29213;50.770;7.298;2023-05-31T10:50:21;101377.59;;;24.66;22.52
43621;BME280;29213;50.770;7.298;2023-05-31T10:53:07;101407.41;;;24.85;22.79
43621;BME280;29213;50.770;7.298;2023-05-31T10:55:40;101450.72;;;25.40;25.16
43621;BME280;29213;50.770;7.298;2023-05-31T10:58:06;101437.25;;;25.33;22.67
43621;BME280;29213;50.770;7.298;2023-05-31T11:00:31;101397.03;;;25.11;23.10
43621;BME280;29213;50.770;7.298;2023-05-31T11:02:57;101379.91;;;24.99;22.13
43621;BME280;29213;50.770;7.298;2023-05-31T11:05:25;101442.56;;;25.40;22.43
43621;BME280;29213;50.770;7.298;2023-05-31T11:07:53;101445.78;;;25.66;23.60
43621;BME280;29213;50.770;7.298;2023-05-31T11:10:29;101450.84;;;25.91;23.99
43621;BME280;29213;50.770;7.298;2023-05-31T11:13:01;101435.41;;;26.14;22.32
43621;BME280;29213;50.770;7.298;2023-05-31T11:15:40;101439.94;;;26.25;21.79
43621;BME280;29213;50.770;7.298;2023-05-31T11:18:07;101423.56;;;26.25;21.50
43621;BME280;29213;50.770;7.298;2023-05-31T11:20:36;101403.06;;;26.23;22.95
43621;BME280;29213;50.770;7.298;2023-05-31T11:23:23;101405.72;;;26.18;21.68
43621;BME280;29213;50.770;7.298;2023-05-31T11:28:51;101412.56;;;26.60;21.85
43621;BME280;29213;50.770;7.298;2023-05-31T11:31:16;101379.09;;;26.47;20.66
43621;BME280;29213;50.770;7.298;2023-05-31T11:33:45;101364.53;;;26.42;20.76
43621;BME280;29213;50.770;7.298;2023-05-31T11:36:14;101415.84;;;26.79;20.53
43621;BME280;29213;50.770;7.298;2023-05-31T11:38:41;101389.56;;;26.56;21.78
43621;BME280;29213;50.770;7.298;2023-05-31T11:41:07;101350.31;;;26.39;21.43
43621;BME280;29213;50.770;7.298;2023-05-31T11:43:33;101392.28;;;26.73;21.41
43621;BME280;29213;50.770;7.298;2023-05-31T11:46:00;101357.41;;;26.63;21.29
43621;BME280;29213;50.770;7.298;2023-05-31T11:48:34;101323.84;;;26.62;21.32
43621;BME280;29213;50.770;7.298;2023-05-31T11:51:01;101368.81;;;26.99;21.34
43621;BME280;29213;50.770;7.298;2023-05-31T11:53:27;101350.50;;;27.00;21.94
43621;BME280;29213;50.770;7.298;2023-05-31T11:55:53;101407.22;;;27.37;21.05
43621;BME280;29213;50.770;7.298;2023-05-31T11:58:19;101346.81;;;27.11;21.29
43621;BME280;29213;50.770;7.298;2023-05-31T12:00:46;101391.38;;;27.39;20.88
43621;BME280;29213;50.770;7.298;2023-05-31T12:03:14;101374.94;;;27.34;21.70
43621;BME280;29213;50.770;7.298;2023-05-31T12:05:40;101286.22;;;26.92;20.46
43621;BME280;29213;50.770;7.298;2023-05-31T12:08:06;101360.38;;;27.28;21.09
43621;BME280;29213;50.770;7.298;2023-05-31T12:10:37;101378.88;;;27.49;20.92
43621;BME280;29213;50.770;7.298;2023-05-31T12:13:03;101326.88;;;27.16;21.05
43621;BME280;29213;50.770;7.298;2023-05-31T12:15:32;101360.16;;;27.35;21.63
43621;BME280;29213;50.770;7.298;2023-05-31T12:17:57;101381.06;;;27.46;21.34
43621;BME280;29213;50.770;7.298;2023-05-31T12:20:27;101353.47;;;27.26;20.69
43621;BME280;29213;50.770;7.298;2023-05-31T12:23:10;101336.63;;;27.06;21.52
43621;BME280;29213;50.770;7.298;2023-05-31T12:25:35;101315.69;;;26.90;21.43
43621;BME280;29213;50.770;7.298;2023-05-31T12:28:02;101287.19;;;26.58;20.91
43621;BME280;29213;50.770;7.298;2023-05-31T12:30:27;101303.56;;;26.58;21.97
43621;BME280;29213;50.770;7.298;2023-05-31T12:32:53;101320.78;;;26.59;21.80
43621;BME280;29213;50.770;7.298;2023-05-31T12:35:18;101326.25;;;26.59;22.50
43621;BME280;29213;50.770;7.298;2023-05-31T12:37:44;101354.06;;;26.56;21.22
43621;BME280;29213;50.770;7.298;2023-05-31T12:40:15;101309.34;;;26.17;22.94
43621;BME280;29213;50.770;7.298;2023-05-31T12:42:41;101324.06;;;26.16;22.82
43621;BME280;29213;50.770;7.298;2023-05-31T12:45:08;101306.44;;;26.07;22.70
43621;BME280;29213;50.770;7.298;2023-05-31T12:47:34;101279.00;;;25.74;22.58
43621;BME280;29213;50.770;7.298;2023-05-31T12:50:02;101339.47;;;26.05;22.53
43621;BME280;29213;50.770;7.298;2023-05-31T12:52:30;101319.81;;;25.86;21.82
43621;BME280;29213;50.770;7.298;2023-05-31T12:54:58;101320.22;;;25.78;22.80
43621;BME280;29213;50.770;7.298;2023-05-31T12:57:23;101311.47;;;25.76;22.94
43621;BME280;29213;50.770;7.298;2023-05-31T13:00:00;101329.00;;;25.80;23.10